sensor_id;sensor_type;location;lat;lon;timestamp;P1;durP1;ratioP1;P2;durP2;ratioP2
7517;SDS011;3800;48.922;9.444;2023-04-06T00:02:15;12.60;;;10.27;;
7517;SDS011;3800;48.922;9.444;2023-04-06T00:04:43;12.70;;;10.00;;
7517;SDS011;3800;48.922;9.444;2023-04-06T00:07:11;12.23;;;10.80;;
7517;SDS011;3800;48.922;9.444;2023-04-06T00:09:39;11.37;;;10.17;;
7517;SDS011;3800;48.922;9.444;2023-04-06T00:12:08;13.40;;;10.70;;
7517;SDS011;3800;48.922;9.444;2023-04-06T00:14:36;13.77;;;11.10;;
7517;SDS011;3800;48.922;9.444;2023-04-06T00:17:04;13.20;;;11.37;;
7517;SDS011;3800;48.922;9.444;2023-04-06T00:19:33;12.47;;;10.23;;
7517;SDS011;3800;48.922;9.444;2023-04-06T00:22:01;12.97;;;11.43;;
7517;SDS011;3800;48.922;9.444;2023-04-06T00:24:29;12.27;;;10.80;;
7517;SDS011;3800;48.922;9.444;2023-04-06T00:26:57;13.30;;;11.07;;
7517;SDS011;3800;48.922;9.444;2023-04-06T00:29:26;13.83;;;11.07;;
7517;SDS011;3800;48.922;9.444;2023-04-06T00:31:54;12.87;;;9.90;;
7517;SDS011;3800;48.922;9.444;2023-04-06T00:34:23;11.43;;;9.13;;
7517;SDS011;3800;48.922;9.444;2023-04-06T00:36:51;10.20;;;9.20;;
7517;SDS011;3800;48.922;9.444;2023-04-06T00:39:19;11.53;;;9.57;;
7517;SDS011;3800;48.922;9.444;2023-04-06T00:41:49;10.07;;;9.00;;
7517;SDS011;3800;48.922;9.444;2023-04-06T00:44:17;11.87;;;9.73;;
7517;SDS011;3800;48.922;9.444;2023-04-06T00:46:45;12.37;;;10.33;;
7517;SDS011;3800;48.922;9.444;2023-04-06T00:49:14;12.90;;;10.83;;
7517;SDS011;3800;48.922;9.444;2023-04-06T00:51:42;14.50;;;11.20;;
7517;SDS011;3800;48.922;9.444;2023-04-06T00:54:10;14.70;;;11.17;;
7517;SDS011;3800;48.922;9.444;2023-04-06T00:56:38;13.27;;;10.83;;
7517;SDS011;3800;48.922;9.444;2023-04-06T00:59:07;12.87;;;10.53;;
7517;SDS011;3800;48.922;9.444;2023-04-06T01:01:35;13.87;;;11.70;;
7517;SDS011;3800;48.922;9.444;2023-04-06T01:04:03;17.37;;;11.70;;
7517;SDS011;3800;48.922;9.444;2023-04-06T01:06:31;18.93;;;12.93;;
7517;SDS011;3800;48.922;9.444;2023-04-06T01:09:00;16.67;;;12.33;;
7517;SDS011;3800;48.922;9.444;2023-04-06T01:11:29;15.90;;;12.20;;
7517;SDS011;3800;48.922;9.444;2023-04-06T01:13:57;13.87;;;11.10;;
7517;SDS011;3800;48.922;9.444;2023-04-06T01:16:25;14.10;;;10.93;;
7517;SDS011;3800;48.922;9.444;2023-04-06T01:18:53;12.63;;;11.33;;
7517;SDS011;3800;48.922;9.444;2023-04-06T01:21:22;14.47;;;10.43;;
7517;SDS011;3800;48.922;9.444;2023-04-06T01:23:50;11.60;;;9.70;;
7517;SDS011;3800;48.922;9.444;2023-04-06T01:26:18;10.30;;;9.00;;
7517;SDS011;3800;48.922;9.444;2023-04-06T01:28:46;13.33;;;9.20;;
7517;SDS011;3800;48.922;9.444;2023-04-06T01:31:15;11.47;;;9.70;;
7517;SDS011;3800;48.922;9.444;2023-04-06T01:33:43;11.60;;;9.23;;
7517;SDS011;3800;48.922;9.444;2023-04-06T01:36:11;9.63;;;8.70;;
7517;SDS011;3800;48.922;9.444;2023-04-06T01:38:40;9.83;;;8.83;;
7517;SDS011;3800;48.922;9.444;2023-04-06T01:41:08;8.73;;;7.83;;
7517;SDS011;3800;48.922;9.444;2023-04-06T01:43:36;9.60;;;8.70;;
7517;SDS011;3800;48.922;9.444;2023-04-06T01:46:05;9.77;;;8.47;;
7517;SDS011;3800;48.922;9.444;2023-04-06T01:48:34;10.13;;;8.87;;
7517;SDS011;3800;48.922;9.444;2023-04-06T01:51:02;10.80;;;9.43;;
7517;SDS011;3800;48.922;9.444;2023-04-06T01:53:31;9.73;;;8.50;;
7517;SDS011;3800;48.922;9.444;2023-04-06T01:55:59;10.30;;;8.57;;
7517;SDS011;3800;48.922;9.444;2023-04-06T01:58:28;9.93;;;8.63;;
7517;SDS011;3800;48.922;9.444;2023-04-06T02:00:56;10.10;;;9.10;;
7517;SDS011;3800;48.922;9.444;2023-04-06T02:03:25;10.63;;;9.50;;
7517;SDS011;3800;48.922;9.444;2023-04-06T02:05:54;10.20;;;9.00;;
7517;SDS011;3800;48.922;9.444;2023-04-06T02:08:23;10.50;;;9.33;;
7517;SDS011;3800;48.922;9.444;2023-04-06T02:10:51;9.67;;;8.50;;
7517;SDS011;3800;48.922;9.444;2023-04-06T02:13:25;11.17;;;8.57;;
7517;SDS011;3800;48.922;9.444;2023-04-06T02:15:53;10.30;;;8.70;;
7517;SDS011;3800;48.922;9.444;2023-04-06T02:18:22;10.27;;;8.83;;
7517;SDS011;3800;48.922;9.444;2023-04-06T02:20:51;10.13;;;8.70;;
7517;SDS011;3800;48.922;9.444;2023-04-06T02:23:19;13.03;;;9.33;;
7517;SDS011;3800;48.922;9.444;2023-04-06T02:25:48;11.47;;;10.03;;
7517;SDS011;3800;48.922;9.444;2023-04-06T02:28:16;10.20;;;9.10;;
7517;SDS011;3800;48.922;9.444;2023-04-06T02:30:45;11.53;;;10.33;;
7517;SDS011;3800;48.922;9.444;2023-04-06T02:33:14;10.10;;;9.03;;
7517;SDS011;3800;48.922;9.444;2023-04-06T02:35:43;10.47;;;9.03;;
7517;SDS011;3800;48.922;9.444;2023-04-06T02:38:12;11.20;;;9.23;;
7517;SDS011;3800;48.922;9.444;2023-04-06T02:40:40;11.47;;;9.37;;
7517;SDS011;3800;48.922;9.444;2023-04-06T02:43:09;12.00;;;10.37;;
7517;SDS011;3800;48.922;9.444;2023-04-06T02:45:37;11.00;;;9.90;;
7517;SDS011;3800;48.922;9.444;2023-04-06T02:48:06;11.57;;;9.73;;
7517;SDS011;3800;48.922;9.444;2023-04-06T02:50:35;11.30;;;9.67;;
7517;SDS011;3800;48.922;9.444;2023-04-06T02:53:03;11.53;;;8.90;;
7517;SDS011;3800;48.922;9.444;2023-04-06T02:55:31;10.23;;;9.23;;
7517;SDS011;3800;48.922;9.444;2023-04-06T02:58:00;12.90;;;9.47;;
7517;SDS011;3800;48.922;9.444;2023-04-06T03:00:28;11.60;;;9.30;;
7517;SDS011;3800;48.922;9.444;2023-04-06T03:02:56;10.23;;;9.13;;
7517;SDS011;3800;48.922;9.444;2023-04-06T03:05:24;10.67;;;9.47;;
7517;SDS011;3800;48.922;9.444;2023-04-06T03:07:53;10.67;;;9.23;;
7517;SDS011;3800;48.922;9.444;2023-04-06T03:10:21;11.03;;;9.70;;
7517;SDS011;3800;48.922;9.444;2023-04-06T03:12:49;13.00;;;9.63;;
7517;SDS011;3800;48.922;9.444;2023-04-06T03:15:17;10.93;;;9.43;;
7517;SDS011;3800;48.922;9.444;2023-04-06T03:17:46;11.27;;;8.73;;
7517;SDS011;3800;48.922;9.444;2023-04-06T03:20:14;9.57;;;8.57;;
7517;SDS011;3800;48.922;9.444;2023-04-06T03:22:42;11.93;;;9.10;;
7517;SDS011;3800;48.922;9.444;2023-04-06T03:25:10;12.63;;;9.40;;
7517;SDS011;3800;48.922;9.444;2023-04-06T03:27:39;10.20;;;9.20;;
7517;SDS011;3800;48.922;9.444;2023-04-06T03:30:08;10.33;;;9.20;;
7517;SDS011;3800;48.922;9.444;2023-04-06T03:32:36;10.87;;;8.87;;
7517;SDS011;3800;48.922;9.444;2023-04-06T03:35:05;11.57;;;8.70;;
7517;SDS011;3800;48.922;9.444;2023-04-06T03:37:33;10.67;;;9.17;;
7517;SDS011;3800;48.922;9.444;2023-04-06T03:40:02;10.57;;;9.17;;
7517;SDS011;3800;48.922;9.444;2023-04-06T03:42:30;10.10;;;9.10;;
7517;SDS011;3800;48.922;9.444;2023-04-06T03:44:58;10.50;;;9.50;;
7517;SDS011;3800;48.922;9.444;2023-04-06T03:47:26;10.47;;;9.20;;
7517;SDS011;3800;48.922;9.444;2023-04-06T03:49:55;10.87;;;9.53;;
7517;SDS011;3800;48.922;9.444;2023-04-06T03:52:23;10.90;;;9.83;;
7517;SDS011;3800;48.922;9.444;2023-04-06T03:54:51;11.03;;;9.57;;
7517;SDS011;3800;48.922;9.444;2023-04-06T03:57:19;10.70;;;9.60;;
7517;SDS011;3800;48.922;9.444;2023-04-06T03:59:48;10.80;;;9.23;;
7517;SDS011;3800;48.922;9.444;2023-04-06T04:02:18;11.17;;;9.30;;
7517;SDS011;3800;48.922;9.444;2023-04-06T04:04:46;12.27;;;10.30;;
7517;SDS011;3800;48.922;9.444;2023-04-06T04:07:16;10.97;;;9.70;;
7517;SDS011;3800;48.922;9.444;2023-04-06T04:09:44;11.27;;;9.93;;
7517;SDS011;3800;48.922;9.444;2023-04-06T04:12:13;11.87;;;9.87;;
7517;SDS011;3800;48.922;9.444;2023-04-06T04:14:41;10.97;;;9.87;;
7517;SDS011;3800;48.922;9.444;2023-04-06T04:17:09;12.07;;;10.07;;
7517;SDS011;3800;48.922;9.444;2023-04-06T04:19:38;11.37;;;10.17;;
7517;SDS011;3800;48.922;9.444;2023-04-06T04:22:06;14.27;;;9.87;;
7517;SDS011;3800;48.922;9.444;2023-04-06T04:24:34;11.83;;;10.43;;
7517;SDS011;3800;48.922;9.444;2023-04-06T04:27:02;11.37;;;9.90;;
7517;SDS011;3800;48.922;9.444;2023-04-06T04:29:31;11.47;;;10.03;;
7517;SDS011;3800;48.922;9.444;2023-04-06T04:31:59;13.50;;;10.10;;
7517;SDS011;3800;48.922;9.444;2023-04-06T04:34:27;11.00;;;9.87;;
7517;SDS011;3800;48.922;9.444;2023-04-06T04:36:55;15.53;;;9.53;;
7517;SDS011;3800;48.922;9.444;2023-04-06T04:39:24;11.27;;;9.53;;
7517;SDS011;3800;48.922;9.444;2023-04-06T04:41:52;14.20;;;10.80;;
7517;SDS011;3800;48.922;9.444;2023-04-06T04:44:20;12.33;;;10.47;;
7517;SDS011;3800;48.922;9.444;2023-04-06T04:46:49;12.37;;;10.30;;
7517;SDS011;3800;48.922;9.444;2023-04-06T04:49:17;11.83;;;10.53;;
7517;SDS011;3800;48.922;9.444;2023-04-06T04:51:45;13.97;;;10.60;;
7517;SDS011;3800;48.922;9.444;2023-04-06T04:54:13;11.93;;;9.87;;
7517;SDS011;3800;48.922;9.444;2023-04-06T04:56:42;12.10;;;10.40;;
7517;SDS011;3800;48.922;9.444;2023-04-06T04:59:10;13.83;;;10.10;;
7517;SDS011;3800;48.922;9.444;2023-04-06T05:01:38;13.13;;;10.63;;
7517;SDS011;3800;48.922;9.444;2023-04-06T05:04:06;11.77;;;10.57;;
7517;SDS011;3800;48.922;9.444;2023-04-06T05:06:35;10.87;;;9.53;;
7517;SDS011;3800;48.922;9.444;2023-04-06T05:09:04;13.50;;;10.93;;
7517;SDS011;3800;48.922;9.444;2023-04-06T05:11:33;15.33;;;10.90;;
7517;SDS011;3800;48.922;9.444;2023-04-06T05:14:01;11.17;;;10.00;;
7517;SDS011;3800;48.922;9.444;2023-04-06T05:16:29;11.17;;;9.80;;
7517;SDS011;3800;48.922;9.444;2023-04-06T05:18:58;12.77;;;10.70;;
7517;SDS011;3800;48.922;9.444;2023-04-06T05:21:26;12.77;;;10.87;;
7517;SDS011;3800;48.922;9.444;2023-04-06T05:23:55;16.00;;;11.10;;
7517;SDS011;3800;48.922;9.444;2023-04-06T05:26:24;11.53;;;10.30;;
7517;SDS011;3800;48.922;9.444;2023-04-06T05:28:53;12.27;;;10.50;;
7517;SDS011;3800;48.922;9.444;2023-04-06T05:31:21;13.10;;;10.83;;
7517;SDS011;3800;48.922;9.444;2023-04-06T05:33:50;13.00;;;10.70;;
7517;SDS011;3800;48.922;9.444;2023-04-06T05:36:18;11.93;;;10.43;;
7517;SDS011;3800;48.922;9.444;2023-04-06T05:38:47;12.90;;;11.27;;
7517;SDS011;3800;48.922;9.444;2023-04-06T05:41:16;12.80;;;10.40;;
7517;SDS011;3800;48.922;9.444;2023-04-06T05:43:44;13.03;;;10.70;;
7517;SDS011;3800;48.922;9.444;2023-04-06T05:46:12;15.13;;;10.83;;
7517;SDS011;3800;48.922;9.444;2023-04-06T05:48:40;11.73;;;10.47;;
7517;SDS011;3800;48.922;9.444;2023-04-06T05:51:09;15.37;;;10.67;;
7517;SDS011;3800;48.922;9.444;2023-04-06T05:53:37;16.57;;;11.00;;
7517;SDS011;3800;48.922;9.444;2023-04-06T05:56:05;11.57;;;10.37;;
7517;SDS011;3800;48.922;9.444;2023-04-06T05:58:34;12.53;;;10.90;;
7517;SDS011;3800;48.922;9.444;2023-04-06T06:01:02;14.87;;;11.30;;
7517;SDS011;3800;48.922;9.444;2023-04-06T06:03:30;12.93;;;9.90;;
7517;SDS011;3800;48.922;9.444;2023-04-06T06:06:00;14.90;;;11.17;;
7517;SDS011;3800;48.922;9.444;2023-04-06T06:08:28;18.23;;;10.43;;
7517;SDS011;3800;48.922;9.444;2023-04-06T06:10:57;13.90;;;11.37;;
7517;SDS011;3800;48.922;9.444;2023-04-06T06:13:25;14.57;;;11.77;;
7517;SDS011;3800;48.922;9.444;2023-04-06T06:15:54;14.77;;;12.37;;
7517;SDS011;3800;48.922;9.444;2023-04-06T06:18:22;14.20;;;11.03;;
7517;SDS011;3800;48.922;9.444;2023-04-06T06:20:51;13.80;;;12.07;;
7517;SDS011;3800;48.922;9.444;2023-04-06T06:23:19;16.00;;;12.40;;
7517;SDS011;3800;48.922;9.444;2023-04-06T06:25:48;14.73;;;12.40;;
7517;SDS011;3800;48.922;9.444;2023-04-06T06:28:16;15.17;;;11.90;;
7517;SDS011;3800;48.922;9.444;2023-04-06T06:30:44;15.17;;;12.53;;
7517;SDS011;3800;48.922;9.444;2023-04-06T06:33:12;12.63;;;11.30;;
7517;SDS011;3800;48.922;9.444;2023-04-06T06:35:41;15.60;;;12.47;;
7517;SDS011;3800;48.922;9.444;2023-04-06T06:38:10;14.17;;;12.40;;
7517;SDS011;3800;48.922;9.444;2023-04-06T06:40:39;14.07;;;12.67;;
7517;SDS011;3800;48.922;9.444;2023-04-06T06:43:06;14.20;;;12.43;;
7517;SDS011;3800;48.922;9.444;2023-04-06T06:45:35;15.07;;;12.87;;
7517;SDS011;3800;48.922;9.444;2023-04-06T06:48:03;14.90;;;13.23;;
7517;SDS011;3800;48.922;9.444;2023-04-06T06:50:31;14.00;;;12.40;;
7517;SDS011;3800;48.922;9.444;2023-04-06T06:52:59;14.30;;;12.80;;
7517;SDS011;3800;48.922;9.444;2023-04-06T06:55:28;14.83;;;12.97;;
7517;SDS011;3800;48.922;9.444;2023-04-06T06:57:57;14.67;;;12.73;;
7517;SDS011;3800;48.922;9.444;2023-04-06T07:00:26;14.60;;;13.07;;
7517;SDS011;3800;48.922;9.444;2023-04-06T07:02:54;15.47;;;13.50;;
7517;SDS011;3800;48.922;9.444;2023-04-06T07:05:22;15.93;;;13.00;;
7517;SDS011;3800;48.922;9.444;2023-04-06T07:07:50;14.43;;;12.97;;
7517;SDS011;3800;48.922;9.444;2023-04-06T07:10:19;19.67;;;14.27;;
7517;SDS011;3800;48.922;9.444;2023-04-06T07:12:47;16.53;;;14.20;;
7517;SDS011;3800;48.922;9.444;2023-04-06T07:15:16;17.83;;;14.30;;
7517;SDS011;3800;48.922;9.444;2023-04-06T07:17:43;17.53;;;14.87;;
7517;SDS011;3800;48.922;9.444;2023-04-06T07:20:13;16.10;;;14.13;;
7517;SDS011;3800;48.922;9.444;2023-04-06T07:22:42;14.90;;;13.30;;
7517;SDS011;3800;48.922;9.444;2023-04-06T07:25:09;15.57;;;13.57;;
7517;SDS011;3800;48.922;9.444;2023-04-06T07:27:37;14.13;;;12.63;;
7517;SDS011;3800;48.922;9.444;2023-04-06T07:30:06;14.27;;;12.50;;
7517;SDS011;3800;48.922;9.444;2023-04-06T07:32:35;12.13;;;10.93;;
7517;SDS011;3800;48.922;9.444;2023-04-06T07:35:04;15.40;;;12.57;;
7517;SDS011;3800;48.922;9.444;2023-04-06T07:37:32;13.07;;;11.67;;
7517;SDS011;3800;48.922;9.444;2023-04-06T07:40:01;13.30;;;11.90;;
7517;SDS011;3800;48.922;9.444;2023-04-06T07:42:29;15.13;;;10.80;;
7517;SDS011;3800;48.922;9.444;2023-04-06T07:44:57;12.80;;;11.10;;
7517;SDS011;3800;48.922;9.444;2023-04-06T07:47:25;14.10;;;10.53;;
7517;SDS011;3800;48.922;9.444;2023-04-06T07:49:54;14.23;;;10.40;;
7517;SDS011;3800;48.922;9.444;2023-04-06T07:52:22;13.13;;;9.80;;
7517;SDS011;3800;48.922;9.444;2023-04-06T07:54:50;10.97;;;9.73;;
7517;SDS011;3800;48.922;9.444;2023-04-06T07:57:18;10.73;;;9.03;;
7517;SDS011;3800;48.922;9.444;2023-04-06T07:59:47;12.27;;;9.73;;
7517;SDS011;3800;48.922;9.444;2023-04-06T08:02:16;11.37;;;9.23;;
7517;SDS011;3800;48.922;9.444;2023-04-06T08:04:44;12.70;;;10.10;;
7517;SDS011;3800;48.922;9.444;2023-04-06T08:07:12;9.37;;;8.40;;
7517;SDS011;3800;48.922;9.444;2023-04-06T08:09:40;10.63;;;8.37;;
7517;SDS011;3800;48.922;9.444;2023-04-06T08:12:09;12.40;;;9.40;;
7517;SDS011;3800;48.922;9.444;2023-04-06T08:14:37;12.20;;;9.37;;
7517;SDS011;3800;48.922;9.444;2023-04-06T08:17:05;9.70;;;8.70;;
7517;SDS011;3800;48.922;9.444;2023-04-06T08:19:33;10.73;;;9.40;;
7517;SDS011;3800;48.922;9.444;2023-04-06T08:22:02;11.73;;;9.50;;
7517;SDS011;3800;48.922;9.444;2023-04-06T08:24:30;12.63;;;8.90;;
7517;SDS011;3800;48.922;9.444;2023-04-06T08:26:58;11.27;;;8.77;;
7517;SDS011;3800;48.922;9.444;2023-04-06T08:29:27;11.33;;;8.43;;
7517;SDS011;3800;48.922;9.444;2023-04-06T08:31:55;11.03;;;8.77;;
7517;SDS011;3800;48.922;9.444;2023-04-06T08:34:23;9.57;;;7.80;;
7517;SDS011;3800;48.922;9.444;2023-04-06T08:36:51;11.23;;;8.97;;
7517;SDS011;3800;48.922;9.444;2023-04-06T08:39:20;11.77;;;8.23;;
7517;SDS011;3800;48.922;9.444;2023-04-06T08:41:48;11.40;;;8.20;;
7517;SDS011;3800;48.922;9.444;2023-04-06T08:44:16;10.50;;;8.80;;
7517;SDS011;3800;48.922;9.444;2023-04-06T08:46:45;10.63;;;8.50;;
7517;SDS011;3800;48.922;9.444;2023-04-06T08:49:13;10.97;;;9.33;;
7517;SDS011;3800;48.922;9.444;2023-04-06T08:51:42;11.10;;;8.97;;
7517;SDS011;3800;48.922;9.444;2023-04-06T08:54:10;10.10;;;8.53;;
7517;SDS011;3800;48.922;9.444;2023-04-06T08:56:38;13.17;;;9.50;;
7517;SDS011;3800;48.922;9.444;2023-04-06T08:59:07;13.40;;;8.40;;
7517;SDS011;3800;48.922;9.444;2023-04-06T09:01:38;10.37;;;8.83;;
7517;SDS011;3800;48.922;9.444;2023-04-06T09:04:04;10.57;;;9.07;;
7517;SDS011;3800;48.922;9.444;2023-04-06T09:06:32;12.27;;;8.50;;
7517;SDS011;3800;48.922;9.444;2023-04-06T09:09:00;9.70;;;8.70;;
7517;SDS011;3800;48.922;9.444;2023-04-06T09:11:29;9.70;;;8.57;;
7517;SDS011;3800;48.922;9.444;2023-04-06T09:13:57;11.63;;;9.33;;
7517;SDS011;3800;48.922;9.444;2023-04-06T09:16:26;11.20;;;9.43;;
7517;SDS011;3800;48.922;9.444;2023-04-06T09:18:54;11.90;;;9.33;;
7517;SDS011;3800;48.922;9.444;2023-04-06T09:21:22;11.63;;;9.50;;
7517;SDS011;3800;48.922;9.444;2023-04-06T09:26:26;11.37;;;9.70;;
7517;SDS011;3800;48.922;9.444;2023-04-06T09:28:55;11.37;;;9.30;;
7517;SDS011;3800;48.922;9.444;2023-04-06T09:31:24;12.10;;;9.27;;
7517;SDS011;3800;48.922;9.444;2023-04-06T09:33:52;12.03;;;9.33;;
7517;SDS011;3800;48.922;9.444;2023-04-06T09:36:28;10.27;;;8.93;;
7517;SDS011;3800;48.922;9.444;2023-04-06T09:38:55;10.17;;;8.67;;
7517;SDS011;3800;48.922;9.444;2023-04-06T09:41:24;13.23;;;8.80;;
7517;SDS011;3800;48.922;9.444;2023-04-06T09:43:52;11.33;;;8.70;;
7517;SDS011;3800;48.922;9.444;2023-04-06T09:46:20;12.27;;;9.60;;
7517;SDS011;3800;48.922;9.444;2023-04-06T09:48:48;9.40;;;8.33;;
7517;SDS011;3800;48.922;9.444;2023-04-06T09:51:16;10.33;;;8.47;;
7517;SDS011;3800;48.922;9.444;2023-04-06T09:53:44;9.87;;;8.50;;
7517;SDS011;3800;48.922;9.444;2023-04-06T09:56:13;11.33;;;7.83;;
7517;SDS011;3800;48.922;9.444;2023-04-06T09:58:41;9.73;;;7.37;;
7517;SDS011;3800;48.922;9.444;2023-04-06T10:01:10;11.00;;;8.00;;
7517;SDS011;3800;48.922;9.444;2023-04-06T10:06:22;10.33;;;7.63;;
7517;SDS011;3800;48.922;9.444;2023-04-06T10:08:51;9.97;;;8.03;;
7517;SDS011;3800;48.922;9.444;2023-04-06T10:11:18;8.90;;;8.00;;
7517;SDS011;3800;48.922;9.444;2023-04-06T10:13:47;11.00;;;8.60;;
7517;SDS011;3800;48.922;9.444;2023-04-06T10:16:15;10.67;;;8.73;;
7517;SDS011;3800;48.922;9.444;2023-04-06T10:18:47;9.33;;;7.77;;
7517;SDS011;3800;48.922;9.444;2023-04-06T10:21:16;9.03;;;8.13;;
7517;SDS011;3800;48.922;9.444;2023-04-06T10:23:44;11.37;;;8.80;;
7517;SDS011;3800;48.922;9.444;2023-04-06T10:26:14;9.40;;;8.27;;
7517;SDS011;3800;48.922;9.444;2023-04-06T10:28:43;9.27;;;8.03;;
7517;SDS011;3800;48.922;9.444;2023-04-06T10:31:11;9.63;;;8.30;;
7517;SDS011;3800;48.922;9.444;2023-04-06T10:33:39;9.77;;;8.13;;
7517;SDS011;3800;48.922;9.444;2023-04-06T10:36:10;12.07;;;8.20;;
7517;SDS011;3800;48.922;9.444;2023-04-06T10:38:38;8.57;;;7.43;;
7517;SDS011;3800;48.922;9.444;2023-04-06T10:41:08;9.90;;;8.20;;
7517;SDS011;3800;48.922;9.444;2023-04-06T10:43:37;11.23;;;8.33;;
7517;SDS011;3800;48.922;9.444;2023-04-06T10:46:05;9.63;;;8.23;;
7517;SDS011;3800;48.922;9.444;2023-04-06T10:48:39;8.70;;;7.80;;
7517;SDS011;3800;48.922;9.444;2023-04-06T10:51:08;8.57;;;7.73;;
7517;SDS011;3800;48.922;9.444;2023-04-06T10:53:39;9.30;;;8.20;;
7517;SDS011;3800;48.922;9.444;2023-04-06T10:56:12;8.80;;;7.77;;
7517;SDS011;3800;48.922;9.444;2023-04-06T10:58:44;8.63;;;7.40;;
7517;SDS011;3800;48.922;9.444;2023-04-06T11:01:16;9.97;;;7.50;;
7517;SDS011;3800;48.922;9.444;2023-04-06T11:03:45;10.03;;;7.77;;
7517;SDS011;3800;48.922;9.444;2023-04-06T11:06:23;8.80;;;7.90;;
7517;SDS011;3800;48.922;9.444;2023-04-06T11:08:53;9.40;;;8.20;;
7517;SDS011;3800;48.922;9.444;2023-04-06T11:11:22;10.53;;;8.03;;
7517;SDS011;3800;48.922;9.444;2023-04-06T11:13:51;9.40;;;7.87;;
7517;SDS011;3800;48.922;9.444;2023-04-06T11:16:22;9.90;;;8.53;;
7517;SDS011;3800;48.922;9.444;2023-04-06T11:18:52;8.90;;;7.70;;
7517;SDS011;3800;48.922;9.444;2023-04-06T11:24:07;8.90;;;7.53;;
7517;SDS011;3800;48.922;9.444;2023-04-06T11:26:46;9.63;;;8.07;;
7517;SDS011;3800;48.922;9.444;2023-04-06T11:29:20;10.30;;;8.30;;
7517;SDS011;3800;48.922;9.444;2023-04-06T11:31:48;9.67;;;8.17;;
7517;SDS011;3800;48.922;9.444;2023-04-06T11:34:17;9.53;;;8.10;;
7517;SDS011;3800;48.922;9.444;2023-04-06T11:36:48;9.00;;;7.83;;
7517;SDS011;3800;48.922;9.444;2023-04-06T11:39:20;9.23;;;8.27;;
7517;SDS011;3800;48.922;9.444;2023-04-06T11:41:48;8.10;;;7.27;;
7517;SDS011;3800;48.922;9.444;2023-04-06T11:47:07;12.10;;;8.80;;
7517;SDS011;3800;48.922;9.444;2023-04-06T11:49:36;9.20;;;7.93;;
7517;SDS011;3800;48.922;9.444;2023-04-06T11:52:14;9.83;;;8.13;;
7517;SDS011;3800;48.922;9.444;2023-04-06T11:54:48;10.90;;;8.53;;
7517;SDS011;3800;48.922;9.444;2023-04-06T11:57:16;10.33;;;8.20;;
7517;SDS011;3800;48.922;9.444;2023-04-06T11:59:44;10.37;;;6.73;;
7517;SDS011;3800;48.922;9.444;2023-04-06T12:02:12;11.73;;;8.13;;
7517;SDS011;3800;48.922;9.444;2023-04-06T12:04:40;31.60;;;13.93;;
7517;SDS011;3800;48.922;9.444;2023-04-06T12:07:09;12.43;;;7.90;;
7517;SDS011;3800;48.922;9.444;2023-04-06T12:09:37;8.23;;;7.37;;
7517;SDS011;3800;48.922;9.444;2023-04-06T12:12:05;6.77;;;6.03;;
7517;SDS011;3800;48.922;9.444;2023-04-06T12:14:34;22.47;;;10.07;;
7517;SDS011;3800;48.922;9.444;2023-04-06T12:17:02;7.63;;;6.67;;
7517;SDS011;3800;48.922;9.444;2023-04-06T12:19:30;19.00;;;10.43;;
7517;SDS011;3800;48.922;9.444;2023-04-06T12:21:58;25.37;;;12.37;;
7517;SDS011;3800;48.922;9.444;2023-04-06T12:24:27;37.27;;;14.33;;
7517;SDS011;3800;48.922;9.444;2023-04-06T12:26:55;7.57;;;6.33;;
7517;SDS011;3800;48.922;9.444;2023-04-06T12:29:24;9.43;;;7.17;;
7517;SDS011;3800;48.922;9.444;2023-04-06T12:31:52;28.43;;;12.53;;
7517;SDS011;3800;48.922;9.444;2023-04-06T12:34:20;48.83;;;18.67;;
7517;SDS011;3800;48.922;9.444;2023-04-06T12:36:48;54.97;;;18.93;;
7517;SDS011;3800;48.922;9.444;2023-04-06T12:39:18;7.70;;;6.17;;
7517;SDS011;3800;48.922;9.444;2023-04-06T12:41:46;7.20;;;6.47;;
7517;SDS011;3800;48.922;9.444;2023-04-06T12:44:15;7.40;;;6.10;;
7517;SDS011;3800;48.922;9.444;2023-04-06T12:46:43;8.70;;;6.50;;
7517;SDS011;3800;48.922;9.444;2023-04-06T12:49:12;7.80;;;7.00;;
7517;SDS011;3800;48.922;9.444;2023-04-06T12:51:40;8.03;;;6.73;;
7517;SDS011;3800;48.922;9.444;2023-04-06T12:54:09;11.03;;;7.40;;
7517;SDS011;3800;48.922;9.444;2023-04-06T12:56:38;14.40;;;7.13;;
7517;SDS011;3800;48.922;9.444;2023-04-06T12:59:07;6.77;;;5.87;;
7517;SDS011;3800;48.922;9.444;2023-04-06T13:01:35;7.40;;;6.13;;
7517;SDS011;3800;48.922;9.444;2023-04-06T13:04:03;7.73;;;6.70;;
7517;SDS011;3800;48.922;9.444;2023-04-06T13:06:31;8.67;;;6.43;;
7517;SDS011;3800;48.922;9.444;2023-04-06T13:09:00;7.27;;;6.43;;
7517;SDS011;3800;48.922;9.444;2023-04-06T13:11:29;8.73;;;6.80;;
7517;SDS011;3800;48.922;9.444;2023-04-06T13:13:58;8.33;;;6.93;;
7517;SDS011;3800;48.922;9.444;2023-04-06T13:16:26;8.53;;;7.20;;
7517;SDS011;3800;48.922;9.444;2023-04-06T13:18:55;7.00;;;6.40;;
7517;SDS011;3800;48.922;9.444;2023-04-06T13:21:23;7.60;;;6.20;;
7517;SDS011;3800;48.922;9.444;2023-04-06T13:23:51;8.30;;;6.40;;
7517;SDS011;3800;48.922;9.444;2023-04-06T13:26:20;7.87;;;6.30;;
7517;SDS011;3800;48.922;9.444;2023-04-06T13:28:49;7.17;;;5.83;;
7517;SDS011;3800;48.922;9.444;2023-04-06T13:31:17;8.03;;;6.53;;
7517;SDS011;3800;48.922;9.444;2023-04-06T13:33:45;8.27;;;5.50;;
7517;SDS011;3800;48.922;9.444;2023-04-06T13:36:13;6.20;;;5.37;;
7517;SDS011;3800;48.922;9.444;2023-04-06T13:38:42;7.27;;;5.60;;
7517;SDS011;3800;48.922;9.444;2023-04-06T13:43:46;6.90;;;5.47;;
7517;SDS011;3800;48.922;9.444;2023-04-06T13:46:14;4.40;;;3.97;;
7517;SDS011;3800;48.922;9.444;2023-04-06T13:48:43;6.80;;;5.23;;
7517;SDS011;3800;48.922;9.444;2023-04-06T13:51:11;7.50;;;5.27;;
7517;SDS011;3800;48.922;9.444;2023-04-06T13:53:39;6.43;;;4.83;;
7517;SDS011;3800;48.922;9.444;2023-04-06T13:56:07;6.53;;;5.40;;
7517;SDS011;3800;48.922;9.444;2023-04-06T13:58:36;6.07;;;5.43;;
7517;SDS011;3800;48.922;9.444;2023-04-06T14:01:04;7.43;;;4.97;;
7517;SDS011;3800;48.922;9.444;2023-04-06T14:03:33;7.10;;;4.90;;
7517;SDS011;3800;48.922;9.444;2023-04-06T14:06:09;5.93;;;5.23;;
7517;SDS011;3800;48.922;9.444;2023-04-06T14:08:35;5.60;;;5.00;;
7517;SDS011;3800;48.922;9.444;2023-04-06T14:11:05;5.93;;;4.77;;
7517;SDS011;3800;48.922;9.444;2023-04-06T14:13:33;6.50;;;4.97;;
7517;SDS011;3800;48.922;9.444;2023-04-06T14:16:01;5.73;;;4.47;;
7517;SDS011;3800;48.922;9.444;2023-04-06T14:18:29;6.40;;;4.83;;
7517;SDS011;3800;48.922;9.444;2023-04-06T14:20:58;6.63;;;5.00;;
7517;SDS011;3800;48.922;9.444;2023-04-06T14:23:27;5.33;;;4.83;;
7517;SDS011;3800;48.922;9.444;2023-04-06T14:26:00;6.87;;;5.33;;
7517;SDS011;3800;48.922;9.444;2023-04-06T14:28:29;7.40;;;4.63;;
7517;SDS011;3800;48.922;9.444;2023-04-06T14:30:58;6.00;;;5.40;;
7517;SDS011;3800;48.922;9.444;2023-04-06T14:33:26;5.30;;;4.60;;
7517;SDS011;3800;48.922;9.444;2023-04-06T14:35:55;5.67;;;4.87;;
7517;SDS011;3800;48.922;9.444;2023-04-06T14:38:23;5.60;;;4.67;;
7517;SDS011;3800;48.922;9.444;2023-04-06T14:40:51;7.07;;;5.20;;
7517;SDS011;3800;48.922;9.444;2023-04-06T14:43:20;5.57;;;4.93;;
7517;SDS011;3800;48.922;9.444;2023-04-06T14:45:48;5.33;;;4.77;;
7517;SDS011;3800;48.922;9.444;2023-04-06T14:48:16;5.73;;;4.80;;
7517;SDS011;3800;48.922;9.444;2023-04-06T14:53:19;6.00;;;4.53;;
7517;SDS011;3800;48.922;9.444;2023-04-06T14:55:48;5.33;;;4.63;;
7517;SDS011;3800;48.922;9.444;2023-04-06T14:58:18;6.23;;;5.40;;
7517;SDS011;3800;48.922;9.444;2023-04-06T15:00:46;8.00;;;5.00;;
7517;SDS011;3800;48.922;9.444;2023-04-06T15:03:14;6.77;;;5.17;;
7517;SDS011;3800;48.922;9.444;2023-04-06T15:05:42;6.80;;;5.37;;
7517;SDS011;3800;48.922;9.444;2023-04-06T15:08:11;5.73;;;4.57;;
7517;SDS011;3800;48.922;9.444;2023-04-06T15:10:39;5.97;;;4.90;;
7517;SDS011;3800;48.922;9.444;2023-04-06T15:13:07;5.00;;;4.47;;
7517;SDS011;3800;48.922;9.444;2023-04-06T15:15:35;7.93;;;5.07;;
7517;SDS011;3800;48.922;9.444;2023-04-06T15:18:04;9.93;;;5.20;;
7517;SDS011;3800;48.922;9.444;2023-04-06T15:20:32;7.17;;;4.97;;
7517;SDS011;3800;48.922;9.444;2023-04-06T15:23:02;5.73;;;4.90;;
7517;SDS011;3800;48.922;9.444;2023-04-06T15:25:30;6.40;;;4.90;;